createdAt,value
2019-01-08T00:03:00.012Z,21.5
2019-01-08T00:06:05.971Z,21.4
2019-01-08T00:09:11.929Z,21.5
2019-01-08T00:12:17.889Z,21.5
2019-01-08T00:15:23.765Z,21.5
2019-01-08T00:18:29.704Z,21.5
2019-01-08T00:21:35.583Z,21.6
2019-01-08T00:24:41.624Z,21.6
2019-01-08T00:27:47.685Z,21.6
2019-01-08T00:30:53.647Z,21.6
2019-01-08T00:33:59.616Z,21.7
2019-01-08T00:37:05.478Z,21.7
2019-01-08T00:40:11.539Z,21.7
2019-01-08T00:43:17.502Z,21.8
2019-01-08T00:46:23.447Z,21.9
2019-01-08T00:49:29.406Z,21.9
2019-01-08T00:52:35.278Z,21.9
2019-01-08T00:55:41.231Z,21.9
2019-01-08T00:58:52.309Z,21.9
2019-01-08T01:01:58.368Z,22
2019-01-08T01:05:04.320Z,21.8
2019-01-08T01:08:10.383Z,21.2
2019-01-08T01:11:16.444Z,20.8
2019-01-08T01:14:22.407Z,20.7
2019-01-08T01:17:28.361Z,20.6
2019-01-08T01:20:34.328Z,20.6
2019-01-08T01:23:40.286Z,20.5
2019-01-08T01:26:46.254Z,20.5
2019-01-08T01:29:52.116Z,20.5
2019-01-08T01:32:58.263Z,20.5
2019-01-08T01:36:06.781Z,20.4
2019-01-08T01:39:12.750Z,20.4
2019-01-08T01:42:18.705Z,20.4
2019-01-08T01:45:24.669Z,20.3
2019-01-08T01:48:30.628Z,20.3
2019-01-08T01:51:38.954Z,20.3
2019-01-08T01:54:44.995Z,20.3
2019-01-08T01:57:51.063Z,20.3
2019-01-08T02:00:57.017Z,20.3
2019-01-08T02:04:02.976Z,20.2
2019-01-08T02:07:09.156Z,20.2
2019-01-08T02:10:15.010Z,20.2
2019-01-08T02:13:20.954Z,20.2
2019-01-08T02:16:27.121Z,20.2
2019-01-08T02:19:33.079Z,20.1
2019-01-08T02:22:39.036Z,20
2019-01-08T02:25:44.999Z,19.8
2019-01-08T02:28:50.953Z,19.9
2019-01-08T02:31:57.022Z,19.7
2019-01-08T02:35:03.010Z,19.7
2019-01-08T02:38:09.047Z,19.6
2019-01-08T02:41:15.242Z,19.5
2019-01-08T02:44:21.782Z,19.5
2019-01-08T02:47:27.947Z,19.4
2019-01-08T02:50:33.879Z,19.3
2019-01-08T02:53:39.968Z,19.2
2019-01-08T02:56:45.835Z,19.3
2019-01-08T02:59:51.878Z,19.3
2019-01-08T03:02:57.752Z,19.3
2019-01-08T03:06:03.909Z,19.3
2019-01-08T03:09:09.975Z,19.3
2019-01-08T03:12:15.837Z,19.4
2019-01-08T03:15:21.752Z,19.3
2019-01-08T03:18:27.699Z,19.3
2019-01-08T03:21:33.693Z,19.3
2019-01-08T03:24:39.760Z,19.2
2019-01-08T03:27:45.818Z,19.3
2019-01-08T03:30:51.695Z,19.2
2019-01-08T03:33:57.635Z,19.2
2019-01-08T03:37:03.594Z,19.1
2019-01-08T03:40:09.552Z,19.1
2019-01-08T03:43:15.445Z,19.1
2019-01-08T03:46:21.367Z,19.1
2019-01-08T03:49:27.327Z,19
2019-01-08T03:52:33.329Z,18.9
2019-01-08T03:55:39.249Z,19
2019-01-08T03:58:47.776Z,19.2
2019-01-08T04:01:53.692Z,19.2
2019-01-08T04:04:59.701Z,19.4
2019-01-08T04:08:05.570Z,19.8
2019-01-08T04:11:11.608Z,20.6
2019-01-08T04:14:20.432Z,19.9
2019-01-08T04:17:26.402Z,19.6
2019-01-08T04:20:32.448Z,19.3
2019-01-08T04:23:38.510Z,19.2
2019-01-08T04:26:44.482Z,19.2
2019-01-08T04:29:51.352Z,19.8
2019-01-08T04:32:57.234Z,19.6
2019-01-08T04:36:03.168Z,19.6
2019-01-08T04:39:09.132Z,20.6
2019-01-08T04:42:15.093Z,20.3
2019-01-08T04:45:21.147Z,20.3
2019-01-08T04:48:29.787Z,20.1
2019-01-08T04:51:35.651Z,20.2
2019-01-08T04:54:41.591Z,20.3
2019-01-08T04:57:47.457Z,20.4
2019-01-08T05:00:53.459Z,20.1
2019-01-08T05:03:59.279Z,19.8
2019-01-08T05:07:05.322Z,19.9
2019-01-08T05:10:11.382Z,19.8
2019-01-08T05:13:17.255Z,19.6
2019-01-08T05:16:23.204Z,19.7
2019-01-08T05:19:29.079Z,19.7
2019-01-08T05:22:35.023Z,19.5
2019-01-08T05:25:40.979Z,19.6
2019-01-08T05:28:46.854Z,19.4
2019-01-08T05:31:52.914Z,19.2
2019-01-08T05:34:58.875Z,20
2019-01-08T05:38:04.921Z,19.8
2019-01-08T05:41:10.839Z,19.6
2019-01-08T05:44:16.710Z,19.5
2019-01-08T05:47:22.691Z,19.3
2019-01-08T05:50:28.657Z,19.1
2019-01-08T05:53:34.715Z,19.1
2019-01-08T05:56:40.715Z,19.4
2019-01-08T05:59:46.651Z,20.1
2019-01-08T06:02:52.727Z,19.7
2019-01-08T06:05:58.860Z,19.1
2019-01-08T06:09:04.728Z,19.1
2019-01-08T06:12:10.677Z,19.3
2019-01-08T06:15:16.739Z,19.1
2019-01-08T06:18:22.619Z,19.2
2019-01-08T06:21:28.663Z,19.2
2019-01-08T06:24:37.288Z,18.8
2019-01-08T06:27:43.238Z,19.5
2019-01-08T06:30:49.206Z,18.9
2019-01-08T06:33:55.155Z,19
2019-01-08T06:37:01.110Z,19.3
2019-01-08T06:40:07.071Z,19.5
2019-01-08T06:43:12.958Z,19.2
2019-01-08T06:46:20.627Z,19
2019-01-08T06:49:26.611Z,18.7
2019-01-08T06:52:34.514Z,19.1
2019-01-08T06:55:40.455Z,19
2019-01-08T06:58:46.412Z,19.5
2019-01-08T07:01:53.395Z,19
2019-01-08T07:04:59.427Z,19.4
2019-01-08T07:08:05.415Z,19.6
2019-01-08T07:11:11.406Z,19.4
2019-01-08T07:14:17.313Z,19.5
2019-01-08T07:17:25.952Z,19.5
2019-01-08T07:20:31.923Z,19.4
2019-01-08T07:23:38.034Z,19.3
2019-01-08T07:26:43.957Z,20.2
2019-01-08T07:29:49.900Z,19.7
2019-01-08T07:32:55.785Z,19.5
2019-01-08T07:36:01.718Z,19.4
2019-01-08T07:39:07.676Z,19.5
2019-01-08T07:42:13.685Z,20.1
2019-01-08T07:45:19.599Z,19.7
2019-01-08T07:48:25.555Z,19.7
2019-01-08T07:51:31.439Z,19.5
2019-01-08T07:54:37.495Z,19.7
2019-01-08T07:57:43.440Z,19.7
2019-01-08T08:00:50.847Z,20.1
2019-01-08T08:03:57.093Z,19.7
2019-01-08T08:07:03.050Z,20
2019-01-08T08:10:09.009Z,19.8
2019-01-08T08:13:14.986Z,20.8
2019-01-08T08:16:23.692Z,20.1
2019-01-08T08:19:29.655Z,19.7
2019-01-08T08:22:35.532Z,20
2019-01-08T08:25:41.432Z,20
2019-01-08T08:28:47.433Z,20
2019-01-08T08:31:53.367Z,20.6
2019-01-08T08:35:07.812Z,20.1
2019-01-08T08:38:14.421Z,20.6
2019-01-08T08:41:20.402Z,20.7
2019-01-08T08:44:26.441Z,20.1
2019-01-08T08:47:32.313Z,20.5
2019-01-08T08:50:38.255Z,20.4
2019-01-08T08:53:52.927Z,20.1
2019-01-08T08:57:02.085Z,20.2
2019-01-08T09:00:07.962Z,19.9
2019-01-08T09:03:13.883Z,20.5
2019-01-08T09:06:19.801Z,21.2
2019-01-08T09:09:25.724Z,19.6
2019-01-08T09:12:31.699Z,20
2019-01-08T09:15:37.727Z,19.6
2019-01-08T09:18:43.773Z,19.5
2019-01-08T09:21:50.674Z,19.6
2019-01-08T09:24:56.643Z,19.5
2019-01-08T09:28:02.675Z,19.5
2019-01-08T09:31:16.123Z,19.6
2019-01-08T09:34:22.176Z,19.4
2019-01-08T09:37:28.089Z,19.5
2019-01-08T09:40:34.085Z,19.5
2019-01-08T09:43:39.965Z,19.4
2019-01-08T09:46:45.905Z,22.7
2019-01-08T09:49:51.784Z,19.3
2019-01-08T09:52:57.823Z,19.1
2019-01-08T09:56:03.805Z,19.8
2019-01-08T09:59:09.828Z,19.4
2019-01-08T10:02:15.906Z,19.1
2019-01-08T10:05:21.784Z,18.9
2019-01-08T10:08:27.827Z,18.8
2019-01-08T10:11:33.724Z,18.7
2019-01-08T10:14:39.642Z,18.5
2019-01-08T10:17:45.518Z,18.7
2019-01-08T10:20:51.399Z,19.7
2019-01-08T10:23:57.356Z,18.8
2019-01-08T10:27:05.218Z,18.6
2019-01-08T10:30:11.381Z,18.5
2019-01-08T10:33:17.349Z,18.5
2019-01-08T10:36:23.411Z,18.9
2019-01-08T10:39:29.436Z,19.4
2019-01-08T10:42:38.164Z,18.9
2019-01-08T10:45:44.149Z,18.8
2019-01-08T10:48:50.025Z,19
2019-01-08T10:51:56.002Z,18.9
2019-01-08T10:55:04.187Z,19.1
2019-01-08T10:58:10.246Z,18.8
2019-01-08T11:01:16.310Z,18.9
2019-01-08T11:04:22.389Z,18.9
2019-01-08T11:07:29.559Z,18.4
2019-01-08T11:10:37.457Z,18.6
2019-01-08T11:13:43.336Z,18.8
2019-01-08T11:16:51.325Z,18.7
2019-01-08T11:20:00.770Z,18.8
2019-01-08T11:23:06.843Z,18.8
2019-01-08T11:26:13.005Z,19.7
2019-01-08T11:29:19.069Z,19.7
2019-01-08T11:32:25.014Z,19.4
2019-01-08T11:35:31.531Z,18.7
2019-01-08T11:38:45.737Z,18.9
2019-01-08T11:41:52.721Z,18.8
2019-01-08T11:44:58.784Z,18.7
2019-01-08T11:48:05.049Z,19.2
2019-01-08T11:51:10.991Z,19.4
2019-01-08T11:54:16.973Z,19.5
2019-01-08T11:57:22.933Z,19.1
2019-01-08T12:00:28.992Z,19.2
2019-01-08T12:03:34.967Z,19.1
2019-01-08T12:06:41.035Z,19
2019-01-08T12:09:47.284Z,19
2019-01-08T12:12:53.244Z,18.9
2019-01-08T12:15:59.305Z,18.9
2019-01-08T12:19:06.281Z,18.7
2019-01-08T12:22:15.025Z,18.9
2019-01-08T12:25:21.067Z,18.7
2019-01-08T12:28:27.294Z,18.8
2019-01-08T12:31:33.772Z,18.8
2019-01-08T12:34:39.710Z,18.7
2019-01-08T12:37:46.657Z,18.8
2019-01-08T12:40:52.532Z,18.7
2019-01-08T12:43:58.674Z,18.6
2019-01-08T12:47:04.735Z,18.8
2019-01-08T12:50:11.002Z,19
2019-01-08T12:53:16.977Z,18.9
2019-01-08T12:56:23.991Z,18.9
2019-01-08T12:59:31.956Z,19
2019-01-08T13:02:38.012Z,19
2019-01-08T13:05:44.085Z,18.8
2019-01-08T13:08:50.035Z,18.7
2019-01-08T13:11:56.007Z,18.7
2019-01-08T13:15:02.052Z,18.7
2019-01-08T13:18:08.008Z,18.5
2019-01-08T13:21:14.072Z,18.6
2019-01-08T13:24:20.142Z,18.5
2019-01-08T13:27:26.998Z,18.6
2019-01-08T13:30:32.996Z,20.1
2019-01-08T13:33:39.042Z,18.7
2019-01-08T13:36:46.021Z,18.5
2019-01-08T13:39:51.898Z,18.5
2019-01-08T13:42:59.796Z,18.3
2019-01-08T13:46:05.894Z,18.4
2019-01-08T13:49:12.317Z,18.2
2019-01-08T13:52:18.387Z,18
2019-01-08T13:55:24.331Z,17.9
2019-01-08T13:58:30.414Z,18.1
2019-01-08T14:01:36.465Z,18.9
2019-01-08T14:04:42.434Z,18.4
2019-01-08T14:07:49.306Z,19.3
2019-01-08T14:10:57.321Z,18.4
2019-01-08T14:14:04.313Z,18.1
2019-01-08T14:17:10.357Z,18
2019-01-08T14:20:16.332Z,17.8
2019-01-08T14:23:22.208Z,18.3
2019-01-08T14:26:28.247Z,17.6
2019-01-08T14:29:34.126Z,18
2019-01-08T14:32:41.686Z,17.8
2019-01-08T14:35:47.745Z,17.8
2019-01-08T14:38:53.696Z,18.9
2019-01-08T14:42:03.666Z,18
2019-01-08T14:45:11.673Z,17.9
2019-01-08T14:48:17.662Z,17.8
2019-01-08T14:51:25.129Z,18.2
2019-01-08T14:54:31.189Z,18.6
2019-01-08T14:57:37.737Z,18
2019-01-08T15:00:43.820Z,18
2019-01-08T15:03:49.731Z,18.5
2019-01-08T15:06:55.744Z,17.9
2019-01-08T15:10:04.267Z,18.1
2019-01-08T15:13:10.150Z,17.9
2019-01-08T15:16:16.086Z,18.1
2019-01-08T15:19:25.158Z,17.7
2019-01-08T15:22:32.192Z,17.9
2019-01-08T15:25:38.151Z,18.2
2019-01-08T15:28:44.216Z,17.9
2019-01-08T15:31:50.089Z,17.9
2019-01-08T15:34:56.071Z,17.9
2019-01-08T15:38:02.095Z,17.9
2019-01-08T15:41:08.062Z,17.8
2019-01-08T15:44:16.161Z,17.9
2019-01-08T15:47:22.123Z,17.9
2019-01-08T15:50:28.181Z,18
2019-01-08T15:53:34.053Z,18
2019-01-08T15:56:40.160Z,18
2019-01-08T15:59:46.071Z,18
2019-01-08T16:02:52.237Z,18.1
2019-01-08T16:05:58.193Z,18
2019-01-08T16:09:05.153Z,18.1
2019-01-08T16:12:11.331Z,18
2019-01-08T16:15:17.307Z,17.9
2019-01-08T16:18:23.255Z,17.9
2019-01-08T16:21:29.227Z,18.1
2019-01-08T16:24:35.175Z,18.1
2019-01-08T16:27:41.135Z,17.9
2019-01-08T16:30:47.032Z,17.8
2019-01-08T16:33:53.147Z,17.7
2019-01-08T16:36:59.211Z,17.8
2019-01-08T16:40:05.376Z,17.6
2019-01-08T16:43:11.445Z,17.7
2019-01-08T16:46:17.403Z,17.9
2019-01-08T16:49:23.394Z,18.4
2019-01-08T16:52:29.270Z,18.5
2019-01-08T16:55:35.296Z,19.6
2019-01-08T16:58:41.343Z,18.1
2019-01-08T17:01:47.216Z,18
2019-01-08T17:04:53.261Z,18.1
2019-01-08T17:07:59.222Z,18
2019-01-08T17:11:05.184Z,17.9
2019-01-08T17:14:11.140Z,18
2019-01-08T17:17:17.104Z,17.9
2019-01-08T17:20:23.062Z,17.8
2019-01-08T17:23:29.028Z,18.1
2019-01-08T17:26:34.975Z,18.1
2019-01-08T17:29:41.035Z,17.9
2019-01-08T17:32:47.115Z,17.9
2019-01-08T17:35:52.973Z,17.9
2019-01-08T17:38:59.020Z,17.8
2019-01-08T17:42:04.985Z,17.9
2019-01-08T17:45:11.046Z,17.9
2019-01-08T17:48:16.914Z,17.7
2019-01-08T17:51:22.966Z,17.8
2019-01-08T17:54:29.025Z,17.8
2019-01-08T17:57:35.080Z,17.9
2019-01-08T18:00:40.974Z,17.8
2019-01-08T18:03:47.010Z,17.9
2019-01-08T18:06:52.870Z,17.9
2019-01-08T18:09:58.818Z,18.1
2019-01-08T18:13:04.686Z,18.1
2019-01-08T18:16:10.841Z,18.2
2019-01-08T18:19:16.772Z,18.2
2019-01-08T18:22:22.870Z,18.4
2019-01-08T18:25:28.820Z,18.2
2019-01-08T18:28:37.748Z,18.3
2019-01-08T18:31:43.814Z,18.4
2019-01-08T18:34:49.877Z,18.3
2019-01-08T18:37:55.770Z,18.5
2019-01-08T18:41:01.794Z,18.4
2019-01-08T18:44:07.752Z,18.6
2019-01-08T18:47:13.718Z,18.7
2019-01-08T18:50:19.643Z,18.8
2019-01-08T18:53:25.724Z,19
2019-01-08T18:56:31.689Z,19
2019-01-08T18:59:37.568Z,19.2
2019-01-08T19:02:43.609Z,19
2019-01-08T19:05:49.608Z,19.2
2019-01-08T19:08:55.755Z,19.2
2019-01-08T19:12:01.798Z,19.3
2019-01-08T19:15:07.757Z,19.3
2019-01-08T19:18:13.820Z,19.4
2019-01-08T19:21:19.690Z,19.5
2019-01-08T19:24:25.736Z,19.6
2019-01-08T19:27:31.799Z,19.7
2019-01-08T19:30:37.761Z,19.7
2019-01-08T19:33:43.646Z,19.8
2019-01-08T19:36:49.780Z,19.9
2019-01-08T19:39:55.667Z,19.8
2019-01-08T19:43:01.799Z,20
2019-01-08T19:46:07.858Z,19.9
2019-01-08T19:49:13.753Z,20.1
2019-01-08T19:52:19.986Z,20.1
2019-01-08T19:55:25.946Z,20.2
2019-01-08T19:58:31.927Z,20.2
2019-01-08T20:01:37.836Z,20.3
2019-01-08T20:04:43.825Z,20.3
2019-01-08T20:07:49.693Z,20.4
2019-01-08T20:10:55.741Z,20.4
2019-01-08T20:14:01.766Z,20.5
2019-01-08T20:17:07.660Z,20.6
2019-01-08T20:20:13.536Z,20.6
2019-01-08T20:23:19.477Z,20.6
2019-01-08T20:26:25.539Z,20.7
2019-01-08T20:29:31.410Z,20.8
2019-01-08T20:32:37.457Z,20.9
2019-01-08T20:35:43.327Z,21
2019-01-08T20:38:49.273Z,20.9
2019-01-08T20:41:55.144Z,21.1
2019-01-08T20:45:01.193Z,21.1
2019-01-08T20:48:07.152Z,21.2
2019-01-08T20:51:13.030Z,21.2
2019-01-08T20:54:18.970Z,21.3
2019-01-08T20:57:25.032Z,21.3
2019-01-08T21:00:31.096Z,21.3
2019-01-08T21:03:36.965Z,21.3
2019-01-08T21:06:45.784Z,21.3
2019-01-08T21:09:54.611Z,21.4
2019-01-08T21:13:00.466Z,21.3
2019-01-08T21:16:06.526Z,21.5
2019-01-08T21:19:12.487Z,21.4
2019-01-08T21:22:18.852Z,21.5
2019-01-08T21:25:24.890Z,21.5
2019-01-08T21:28:32.104Z,21.4
2019-01-08T21:31:37.978Z,21.3
2019-01-08T21:34:45.250Z,21.4
2019-01-08T21:37:51.191Z,21.4
2019-01-08T21:40:57.167Z,21.5
2019-01-08T21:44:03.233Z,21.5
2019-01-08T21:47:09.101Z,21.6
2019-01-08T21:50:15.049Z,21.6
2019-01-08T21:53:21.006Z,21.6
2019-01-08T21:56:27.021Z,21.7
2019-01-08T21:59:32.926Z,21.8
2019-01-08T22:02:38.990Z,21.8
2019-01-08T22:05:47.430Z,21.8
2019-01-08T22:08:53.468Z,21.9
2019-01-08T22:11:59.335Z,22
2019-01-08T22:15:05.243Z,21.9
2019-01-08T22:18:11.245Z,22
2019-01-08T22:21:17.202Z,22.1
2019-01-08T22:24:23.162Z,22.1
2019-01-08T22:27:29.225Z,22.2
2019-01-08T22:30:35.096Z,22.3
2019-01-08T22:33:41.145Z,22.3
2019-01-08T22:36:47.080Z,22.4
2019-01-08T22:39:53.062Z,22.5
2019-01-08T22:42:59.022Z,22.6
2019-01-08T22:46:07.691Z,22.6
2019-01-08T22:49:13.707Z,22.6
2019-01-08T22:52:19.663Z,22.7
2019-01-08T22:55:25.672Z,22.7
2019-01-08T22:58:31.582Z,22.7
2019-01-08T23:01:37.647Z,22.8
2019-01-08T23:04:43.609Z,22.8
2019-01-08T23:07:49.667Z,22.8
2019-01-08T23:10:55.542Z,23
2019-01-08T23:14:01.585Z,23
2019-01-08T23:17:07.548Z,23
2019-01-08T23:20:13.506Z,23.1
2019-01-08T23:23:19.374Z,23.2
2019-01-08T23:26:25.423Z,23.1
2019-01-08T23:29:31.489Z,23.1
2019-01-08T23:32:37.355Z,23.1
2019-01-08T23:35:43.300Z,23.1
2019-01-08T23:38:49.260Z,23.1
2019-01-08T23:41:55.132Z,23.2
2019-01-08T23:45:01.077Z,23.2
2019-01-08T23:48:08.879Z,23.2
2019-01-08T23:51:14.839Z,23.1
2019-01-08T23:54:20.800Z,23.1
2019-01-08T23:57:26.769Z,23.2
